sensor_id;sensor_type;location;lat;lon;timestamp;P1;durP1;ratioP1;P2;durP2;ratioP2
19804;SDS011;10062;51.052;13.756;2022-11-20T00:02:02;25.10;;;11.47;;
19804;SDS011;10062;51.052;13.756;2022-11-20T00:04:34;23.33;;;11.43;;
19804;SDS011;10062;51.052;13.756;2022-11-20T00:07:07;28.07;;;11.87;;
19804;SDS011;10062;51.052;13.756;2022-11-20T00:09:39;25.30;;;12.30;;
19804;SDS011;10062;51.052;13.756;2022-11-20T00:12:11;25.27;;;12.03;;
19804;SDS011;10062;51.052;13.756;2022-11-20T00:14:43;28.37;;;12.53;;
19804;SDS011;10062;51.052;13.756;2022-11-20T00:17:15;26.73;;;13.70;;
19804;SDS011;10062;51.052;13.756;2022-11-20T00:19:46;23.97;;;11.40;;
19804;SDS011;10062;51.052;13.756;2022-11-20T00:22:19;26.90;;;12.70;;
19804;SDS011;10062;51.052;13.756;2022-11-20T00:24:51;29.53;;;13.27;;
19804;SDS011;10062;51.052;13.756;2022-11-20T00:27:23;27.77;;;12.60;;
19804;SDS011;10062;51.052;13.756;2022-11-20T00:29:55;26.57;;;12.17;;
19804;SDS011;10062;51.052;13.756;2022-11-20T00:32:27;24.00;;;10.20;;
19804;SDS011;10062;51.052;13.756;2022-11-20T00:34:58;22.70;;;10.53;;
19804;SDS011;10062;51.052;13.756;2022-11-20T00:37:32;21.87;;;10.43;;
19804;SDS011;10062;51.052;13.756;2022-11-20T00:40:04;24.53;;;10.70;;
19804;SDS011;10062;51.052;13.756;2022-11-20T00:42:36;26.93;;;12.07;;
19804;SDS011;10062;51.052;13.756;2022-11-20T00:45:08;25.97;;;11.27;;
19804;SDS011;10062;51.052;13.756;2022-11-20T00:47:40;24.27;;;11.27;;
19804;SDS011;10062;51.052;13.756;2022-11-20T00:50:12;24.57;;;11.17;;
19804;SDS011;10062;51.052;13.756;2022-11-20T00:52:45;23.47;;;11.93;;
19804;SDS011;10062;51.052;13.756;2022-11-20T00:55:17;25.33;;;10.77;;
19804;SDS011;10062;51.052;13.756;2022-11-20T00:57:49;29.43;;;12.00;;
19804;SDS011;10062;51.052;13.756;2022-11-20T01:00:20;30.60;;;13.50;;
19804;SDS011;10062;51.052;13.756;2022-11-20T01:02:52;27.40;;;11.17;;
19804;SDS011;10062;51.052;13.756;2022-11-20T01:05:26;27.00;;;13.03;;
19804;SDS011;10062;51.052;13.756;2022-11-20T01:07:59;26.80;;;12.13;;
19804;SDS011;10062;51.052;13.756;2022-11-20T01:10:31;30.17;;;11.57;;
19804;SDS011;10062;51.052;13.756;2022-11-20T01:13:03;27.30;;;11.47;;
19804;SDS011;10062;51.052;13.756;2022-11-20T01:15:52;21.30;;;9.73;;
19804;SDS011;10062;51.052;13.756;2022-11-20T01:18:23;23.80;;;10.93;;
19804;SDS011;10062;51.052;13.756;2022-11-20T01:20:55;23.40;;;9.77;;
19804;SDS011;10062;51.052;13.756;2022-11-20T01:23:34;26.63;;;11.57;;
19804;SDS011;10062;51.052;13.756;2022-11-20T01:26:09;24.00;;;11.23;;
19804;SDS011;10062;51.052;13.756;2022-11-20T01:28:42;25.90;;;10.90;;
19804;SDS011;10062;51.052;13.756;2022-11-20T01:31:15;27.10;;;11.17;;
19804;SDS011;10062;51.052;13.756;2022-11-20T01:33:49;28.80;;;11.90;;
19804;SDS011;10062;51.052;13.756;2022-11-20T01:36:23;23.03;;;10.83;;
19804;SDS011;10062;51.052;13.756;2022-11-20T01:38:58;24.70;;;12.37;;
19804;SDS011;10062;51.052;13.756;2022-11-20T01:41:32;26.90;;;12.07;;
19804;SDS011;10062;51.052;13.756;2022-11-20T01:44:22;27.93;;;12.63;;
19804;SDS011;10062;51.052;13.756;2022-11-20T01:47:21;28.17;;;12.60;;
19804;SDS011;10062;51.052;13.756;2022-11-20T01:49:59;29.67;;;12.97;;
19804;SDS011;10062;51.052;13.756;2022-11-20T01:52:36;30.23;;;11.73;;
19804;SDS011;10062;51.052;13.756;2022-11-20T01:55:15;28.27;;;11.33;;
19804;SDS011;10062;51.052;13.756;2022-11-20T01:57:50;27.50;;;11.93;;
19804;SDS011;10062;51.052;13.756;2022-11-20T02:00:23;24.33;;;11.77;;
19804;SDS011;10062;51.052;13.756;2022-11-20T02:02:56;26.60;;;11.87;;
19804;SDS011;10062;51.052;13.756;2022-11-20T02:05:31;22.80;;;10.73;;
19804;SDS011;10062;51.052;13.756;2022-11-20T02:08:06;29.17;;;11.43;;
19804;SDS011;10062;51.052;13.756;2022-11-20T02:10:39;20.87;;;11.00;;
19804;SDS011;10062;51.052;13.756;2022-11-20T02:13:11;22.63;;;10.93;;
19804;SDS011;10062;51.052;13.756;2022-11-20T02:16:03;17.43;;;8.57;;
19804;SDS011;10062;51.052;13.756;2022-11-20T02:18:36;26.83;;;10.33;;
19804;SDS011;10062;51.052;13.756;2022-11-20T02:21:12;21.73;;;9.30;;
19804;SDS011;10062;51.052;13.756;2022-11-20T02:24:01;22.33;;;9.43;;
19804;SDS011;10062;51.052;13.756;2022-11-20T02:26:35;19.00;;;9.57;;
19804;SDS011;10062;51.052;13.756;2022-11-20T02:29:12;21.40;;;10.03;;
19804;SDS011;10062;51.052;13.756;2022-11-20T02:31:47;22.10;;;10.00;;
19804;SDS011;10062;51.052;13.756;2022-11-20T02:34:19;20.03;;;8.77;;
19804;SDS011;10062;51.052;13.756;2022-11-20T02:36:50;19.37;;;9.50;;
19804;SDS011;10062;51.052;13.756;2022-11-20T02:39:25;27.40;;;11.77;;
19804;SDS011;10062;51.052;13.756;2022-11-20T02:42:00;20.27;;;9.70;;
19804;SDS011;10062;51.052;13.756;2022-11-20T02:44:32;21.40;;;10.17;;
19804;SDS011;10062;51.052;13.756;2022-11-20T02:47:04;23.23;;;8.77;;
19804;SDS011;10062;51.052;13.756;2022-11-20T02:49:36;22.17;;;9.93;;
19804;SDS011;10062;51.052;13.756;2022-11-20T02:52:08;21.03;;;9.40;;
19804;SDS011;10062;51.052;13.756;2022-11-20T02:54:41;21.83;;;9.77;;
19804;SDS011;10062;51.052;13.756;2022-11-20T02:57:12;23.63;;;10.50;;
19804;SDS011;10062;51.052;13.756;2022-11-20T02:59:44;21.67;;;9.50;;
19804;SDS011;10062;51.052;13.756;2022-11-20T03:02:16;24.20;;;10.17;;
19804;SDS011;10062;51.052;13.756;2022-11-20T03:04:48;23.57;;;10.70;;
19804;SDS011;10062;51.052;13.756;2022-11-20T03:07:19;30.10;;;10.57;;
19804;SDS011;10062;51.052;13.756;2022-11-20T03:09:53;25.47;;;10.03;;
19804;SDS011;10062;51.052;13.756;2022-11-20T03:12:24;27.47;;;10.83;;
19804;SDS011;10062;51.052;13.756;2022-11-20T03:14:56;23.20;;;9.50;;
19804;SDS011;10062;51.052;13.756;2022-11-20T03:17:28;25.27;;;10.83;;
19804;SDS011;10062;51.052;13.756;2022-11-20T03:20:00;19.93;;;10.30;;
19804;SDS011;10062;51.052;13.756;2022-11-20T03:22:32;27.03;;;10.37;;
19804;SDS011;10062;51.052;13.756;2022-11-20T03:25:06;25.13;;;11.30;;
19804;SDS011;10062;51.052;13.756;2022-11-20T03:27:38;26.90;;;11.17;;
19804;SDS011;10062;51.052;13.756;2022-11-20T03:30:10;23.20;;;9.60;;
19804;SDS011;10062;51.052;13.756;2022-11-20T03:32:42;27.73;;;9.73;;
19804;SDS011;10062;51.052;13.756;2022-11-20T03:35:14;22.93;;;10.60;;
19804;SDS011;10062;51.052;13.756;2022-11-20T03:37:46;24.97;;;11.27;;
19804;SDS011;10062;51.052;13.756;2022-11-20T03:40:19;19.83;;;9.40;;
19804;SDS011;10062;51.052;13.756;2022-11-20T03:42:51;24.10;;;10.60;;
19804;SDS011;10062;51.052;13.756;2022-11-20T03:45:23;21.63;;;8.77;;
19804;SDS011;10062;51.052;13.756;2022-11-20T03:47:55;23.27;;;8.90;;
19804;SDS011;10062;51.052;13.756;2022-11-20T03:50:26;23.67;;;9.80;;
19804;SDS011;10062;51.052;13.756;2022-11-20T03:52:58;25.00;;;10.43;;
19804;SDS011;10062;51.052;13.756;2022-11-20T03:55:31;18.90;;;8.73;;
19804;SDS011;10062;51.052;13.756;2022-11-20T03:58:03;19.63;;;8.40;;
19804;SDS011;10062;51.052;13.756;2022-11-20T04:00:35;19.30;;;7.63;;
19804;SDS011;10062;51.052;13.756;2022-11-20T04:03:07;17.90;;;8.43;;
19804;SDS011;10062;51.052;13.756;2022-11-20T04:05:39;19.70;;;9.03;;
19804;SDS011;10062;51.052;13.756;2022-11-20T04:08:10;18.30;;;6.93;;
19804;SDS011;10062;51.052;13.756;2022-11-20T04:10:43;20.60;;;8.50;;
19804;SDS011;10062;51.052;13.756;2022-11-20T04:13:15;21.50;;;9.00;;
19804;SDS011;10062;51.052;13.756;2022-11-20T04:15:47;22.93;;;8.93;;
19804;SDS011;10062;51.052;13.756;2022-11-20T04:18:19;16.77;;;7.27;;
19804;SDS011;10062;51.052;13.756;2022-11-20T04:20:50;17.73;;;7.67;;
19804;SDS011;10062;51.052;13.756;2022-11-20T04:23:22;24.03;;;8.37;;
19804;SDS011;10062;51.052;13.756;2022-11-20T04:26:00;19.03;;;9.10;;
19804;SDS011;10062;51.052;13.756;2022-11-20T04:28:33;21.73;;;9.03;;
19804;SDS011;10062;51.052;13.756;2022-11-20T04:31:05;20.17;;;7.07;;
19804;SDS011;10062;51.052;13.756;2022-11-20T04:33:38;21.23;;;9.17;;
19804;SDS011;10062;51.052;13.756;2022-11-20T04:36:11;18.83;;;8.57;;
19804;SDS011;10062;51.052;13.756;2022-11-20T04:38:44;16.97;;;8.07;;
19804;SDS011;10062;51.052;13.756;2022-11-20T04:41:20;20.27;;;9.17;;
19804;SDS011;10062;51.052;13.756;2022-11-20T04:43:53;22.47;;;9.97;;
19804;SDS011;10062;51.052;13.756;2022-11-20T04:46:29;22.30;;;8.90;;
19804;SDS011;10062;51.052;13.756;2022-11-20T04:49:02;20.50;;;9.77;;
19804;SDS011;10062;51.052;13.756;2022-11-20T04:51:34;24.90;;;11.40;;
19804;SDS011;10062;51.052;13.756;2022-11-20T04:54:06;21.97;;;9.00;;
19804;SDS011;10062;51.052;13.756;2022-11-20T04:56:40;24.97;;;11.43;;
19804;SDS011;10062;51.052;13.756;2022-11-20T04:59:12;26.70;;;10.13;;
19804;SDS011;10062;51.052;13.756;2022-11-20T05:01:44;20.97;;;9.40;;
19804;SDS011;10062;51.052;13.756;2022-11-20T05:04:16;18.27;;;7.87;;
19804;SDS011;10062;51.052;13.756;2022-11-20T05:06:48;25.50;;;10.17;;
19804;SDS011;10062;51.052;13.756;2022-11-20T05:09:20;23.90;;;9.43;;
19804;SDS011;10062;51.052;13.756;2022-11-20T05:11:53;22.80;;;9.60;;
19804;SDS011;10062;51.052;13.756;2022-11-20T05:14:25;22.73;;;9.77;;
19804;SDS011;10062;51.052;13.756;2022-11-20T05:16:57;23.77;;;11.03;;
19804;SDS011;10062;51.052;13.756;2022-11-20T05:19:29;24.57;;;10.53;;
19804;SDS011;10062;51.052;13.756;2022-11-20T05:22:00;22.73;;;10.07;;
19804;SDS011;10062;51.052;13.756;2022-11-20T05:24:32;28.83;;;10.90;;
19804;SDS011;10062;51.052;13.756;2022-11-20T05:27:06;30.03;;;11.93;;
19804;SDS011;10062;51.052;13.756;2022-11-20T05:29:37;29.63;;;11.10;;
19804;SDS011;10062;51.052;13.756;2022-11-20T05:32:09;30.77;;;11.93;;
19804;SDS011;10062;51.052;13.756;2022-11-20T05:34:41;24.83;;;10.57;;
19804;SDS011;10062;51.052;13.756;2022-11-20T05:37:13;26.73;;;10.90;;
19804;SDS011;10062;51.052;13.756;2022-11-20T05:39:44;19.97;;;8.23;;
19804;SDS011;10062;51.052;13.756;2022-11-20T05:42:18;28.47;;;11.83;;
19804;SDS011;10062;51.052;13.756;2022-11-20T05:45:02;24.13;;;10.47;;
19804;SDS011;10062;51.052;13.756;2022-11-20T05:47:36;21.73;;;9.53;;
19804;SDS011;10062;51.052;13.756;2022-11-20T05:50:07;30.87;;;11.73;;
19804;SDS011;10062;51.052;13.756;2022-11-20T05:52:39;25.10;;;10.87;;
19804;SDS011;10062;51.052;13.756;2022-11-20T05:55:11;24.13;;;10.23;;
19804;SDS011;10062;51.052;13.756;2022-11-20T05:57:44;25.97;;;9.67;;
19804;SDS011;10062;51.052;13.756;2022-11-20T06:00:16;19.27;;;9.43;;
19804;SDS011;10062;51.052;13.756;2022-11-20T06:02:49;24.23;;;10.13;;
19804;SDS011;10062;51.052;13.756;2022-11-20T06:05:21;20.97;;;8.93;;
19804;SDS011;10062;51.052;13.756;2022-11-20T06:07:53;19.70;;;9.17;;
19804;SDS011;10062;51.052;13.756;2022-11-20T06:10:24;22.93;;;9.17;;
19804;SDS011;10062;51.052;13.756;2022-11-20T06:12:58;19.87;;;8.00;;
19804;SDS011;10062;51.052;13.756;2022-11-20T06:15:30;21.07;;;8.63;;
19804;SDS011;10062;51.052;13.756;2022-11-20T06:18:02;17.43;;;7.67;;
19804;SDS011;10062;51.052;13.756;2022-11-20T06:20:33;17.80;;;7.97;;
19804;SDS011;10062;51.052;13.756;2022-11-20T06:23:05;15.30;;;6.90;;
19804;SDS011;10062;51.052;13.756;2022-11-20T06:25:37;17.10;;;7.77;;
19804;SDS011;10062;51.052;13.756;2022-11-20T06:28:10;20.40;;;7.40;;
19804;SDS011;10062;51.052;13.756;2022-11-20T06:30:44;22.20;;;8.30;;
19804;SDS011;10062;51.052;13.756;2022-11-20T06:33:16;25.23;;;9.33;;
19804;SDS011;10062;51.052;13.756;2022-11-20T06:35:48;20.93;;;8.03;;
19804;SDS011;10062;51.052;13.756;2022-11-20T06:38:20;21.23;;;8.80;;
19804;SDS011;10062;51.052;13.756;2022-11-20T06:40:52;16.50;;;7.10;;
19804;SDS011;10062;51.052;13.756;2022-11-20T06:43:26;16.60;;;6.87;;
19804;SDS011;10062;51.052;13.756;2022-11-20T06:45:59;18.53;;;8.67;;
19804;SDS011;10062;51.052;13.756;2022-11-20T06:48:31;20.40;;;8.53;;
19804;SDS011;10062;51.052;13.756;2022-11-20T06:51:04;17.70;;;7.43;;
19804;SDS011;10062;51.052;13.756;2022-11-20T06:53:37;21.90;;;9.77;;
19804;SDS011;10062;51.052;13.756;2022-11-20T06:56:09;27.87;;;10.30;;
19804;SDS011;10062;51.052;13.756;2022-11-20T06:58:42;16.27;;;6.93;;
19804;SDS011;10062;51.052;13.756;2022-11-20T07:01:14;24.30;;;9.43;;
19804;SDS011;10062;51.052;13.756;2022-11-20T07:03:48;22.30;;;10.23;;
19804;SDS011;10062;51.052;13.756;2022-11-20T07:06:20;22.87;;;9.03;;
19804;SDS011;10062;51.052;13.756;2022-11-20T07:08:51;16.23;;;8.37;;
19804;SDS011;10062;51.052;13.756;2022-11-20T07:11:23;19.17;;;8.63;;
19804;SDS011;10062;51.052;13.756;2022-11-20T07:13:57;22.33;;;8.73;;
19804;SDS011;10062;51.052;13.756;2022-11-20T07:16:29;29.13;;;9.30;;
19804;SDS011;10062;51.052;13.756;2022-11-20T07:19:01;21.77;;;9.60;;
19804;SDS011;10062;51.052;13.756;2022-11-20T07:21:32;28.07;;;10.37;;
19804;SDS011;10062;51.052;13.756;2022-11-20T07:24:04;30.40;;;11.73;;
19804;SDS011;10062;51.052;13.756;2022-11-20T07:26:36;27.83;;;11.63;;
19804;SDS011;10062;51.052;13.756;2022-11-20T07:29:09;27.33;;;11.07;;
19804;SDS011;10062;51.052;13.756;2022-11-20T07:31:41;30.90;;;11.20;;
19804;SDS011;10062;51.052;13.756;2022-11-20T07:34:13;8.13;;;4.83;;
19804;SDS011;10062;51.052;13.756;2022-11-20T07:36:45;25.03;;;11.73;;
19804;SDS011;10062;51.052;13.756;2022-11-20T07:39:17;26.40;;;10.97;;
19804;SDS011;10062;51.052;13.756;2022-11-20T07:41:48;24.80;;;8.70;;
19804;SDS011;10062;51.052;13.756;2022-11-20T07:44:21;25.20;;;11.23;;
19804;SDS011;10062;51.052;13.756;2022-11-20T07:46:53;9.70;;;6.40;;
19804;SDS011;10062;51.052;13.756;2022-11-20T07:49:25;25.33;;;11.60;;
19804;SDS011;10062;51.052;13.756;2022-11-20T07:51:57;32.27;;;12.40;;
19804;SDS011;10062;51.052;13.756;2022-11-20T07:54:28;30.13;;;11.67;;
19804;SDS011;10062;51.052;13.756;2022-11-20T07:57:00;28.10;;;13.00;;
19804;SDS011;10062;51.052;13.756;2022-11-20T07:59:33;29.83;;;12.87;;
19804;SDS011;10062;51.052;13.756;2022-11-20T08:02:05;31.37;;;12.67;;
19804;SDS011;10062;51.052;13.756;2022-11-20T08:04:40;29.77;;;13.20;;
19804;SDS011;10062;51.052;13.756;2022-11-20T08:07:12;33.07;;;14.43;;
19804;SDS011;10062;51.052;13.756;2022-11-20T08:09:44;40.10;;;13.50;;
19804;SDS011;10062;51.052;13.756;2022-11-20T08:12:16;31.03;;;13.83;;
19804;SDS011;10062;51.052;13.756;2022-11-20T08:15:09;36.33;;;15.87;;
19804;SDS011;10062;51.052;13.756;2022-11-20T08:17:41;30.57;;;12.63;;
19804;SDS011;10062;51.052;13.756;2022-11-20T08:20:13;29.50;;;14.67;;
19804;SDS011;10062;51.052;13.756;2022-11-20T08:22:45;33.67;;;14.00;;
19804;SDS011;10062;51.052;13.756;2022-11-20T08:25:16;35.60;;;15.03;;
19804;SDS011;10062;51.052;13.756;2022-11-20T08:27:48;35.20;;;14.97;;
19804;SDS011;10062;51.052;13.756;2022-11-20T08:30:21;40.17;;;17.53;;
19804;SDS011;10062;51.052;13.756;2022-11-20T08:32:53;39.33;;;18.33;;
19804;SDS011;10062;51.052;13.756;2022-11-20T08:35:25;39.87;;;18.20;;
19804;SDS011;10062;51.052;13.756;2022-11-20T08:37:57;36.47;;;16.63;;
19804;SDS011;10062;51.052;13.756;2022-11-20T08:40:29;36.57;;;16.37;;
19804;SDS011;10062;51.052;13.756;2022-11-20T08:43:00;31.90;;;12.60;;
19804;SDS011;10062;51.052;13.756;2022-11-20T08:45:34;35.50;;;16.10;;
19804;SDS011;10062;51.052;13.756;2022-11-20T08:48:05;33.37;;;15.70;;
19804;SDS011;10062;51.052;13.756;2022-11-20T08:50:37;42.20;;;17.93;;
19804;SDS011;10062;51.052;13.756;2022-11-20T08:53:09;32.10;;;15.17;;
19804;SDS011;10062;51.052;13.756;2022-11-20T08:55:41;39.63;;;17.57;;
19804;SDS011;10062;51.052;13.756;2022-11-20T08:58:12;32.53;;;15.50;;
19804;SDS011;10062;51.052;13.756;2022-11-20T09:00:45;30.57;;;13.93;;
19804;SDS011;10062;51.052;13.756;2022-11-20T09:03:18;32.10;;;15.10;;
19804;SDS011;10062;51.052;13.756;2022-11-20T09:05:50;34.50;;;16.17;;
19804;SDS011;10062;51.052;13.756;2022-11-20T09:08:22;36.40;;;16.57;;
19804;SDS011;10062;51.052;13.756;2022-11-20T09:10:54;30.20;;;14.70;;
19804;SDS011;10062;51.052;13.756;2022-11-20T09:13:27;31.07;;;14.83;;
19804;SDS011;10062;51.052;13.756;2022-11-20T09:16:01;30.17;;;14.93;;
19804;SDS011;10062;51.052;13.756;2022-11-20T09:18:35;27.97;;;15.00;;
19804;SDS011;10062;51.052;13.756;2022-11-20T09:21:09;31.93;;;14.33;;
19804;SDS011;10062;51.052;13.756;2022-11-20T09:23:41;23.13;;;11.77;;
19804;SDS011;10062;51.052;13.756;2022-11-20T09:26:14;27.30;;;13.60;;
19804;SDS011;10062;51.052;13.756;2022-11-20T09:28:46;28.43;;;13.93;;
19804;SDS011;10062;51.052;13.756;2022-11-20T09:31:21;33.13;;;14.83;;
19804;SDS011;10062;51.052;13.756;2022-11-20T09:33:54;26.43;;;13.40;;
19804;SDS011;10062;51.052;13.756;2022-11-20T09:36:26;24.87;;;12.27;;
19804;SDS011;10062;51.052;13.756;2022-11-20T09:38:58;28.73;;;13.40;;
19804;SDS011;10062;51.052;13.756;2022-11-20T09:41:36;27.13;;;13.90;;
19804;SDS011;10062;51.052;13.756;2022-11-20T09:44:26;27.53;;;13.67;;
19804;SDS011;10062;51.052;13.756;2022-11-20T09:47:12;26.13;;;12.97;;
19804;SDS011;10062;51.052;13.756;2022-11-20T09:49:56;22.77;;;10.27;;
19804;SDS011;10062;51.052;13.756;2022-11-20T09:52:37;24.73;;;13.17;;
19804;SDS011;10062;51.052;13.756;2022-11-20T09:55:15;25.17;;;11.73;;
19804;SDS011;10062;51.052;13.756;2022-11-20T09:57:48;23.47;;;11.90;;
19804;SDS011;10062;51.052;13.756;2022-11-20T10:00:23;28.37;;;13.10;;
19804;SDS011;10062;51.052;13.756;2022-11-20T10:02:58;27.67;;;13.33;;
19804;SDS011;10062;51.052;13.756;2022-11-20T10:05:34;23.57;;;12.97;;
19804;SDS011;10062;51.052;13.756;2022-11-20T10:08:14;23.50;;;11.63;;
19804;SDS011;10062;51.052;13.756;2022-11-20T10:10:49;21.37;;;11.60;;
19804;SDS011;10062;51.052;13.756;2022-11-20T10:13:27;23.00;;;12.50;;
19804;SDS011;10062;51.052;13.756;2022-11-20T10:16:13;23.30;;;11.43;;
19804;SDS011;10062;51.052;13.756;2022-11-20T10:19:00;21.80;;;12.47;;
19804;SDS011;10062;51.052;13.756;2022-11-20T10:21:55;24.23;;;12.97;;
19804;SDS011;10062;51.052;13.756;2022-11-20T10:24:48;24.53;;;13.00;;
19804;SDS011;10062;51.052;13.756;2022-11-20T10:27:33;21.70;;;10.37;;
19804;SDS011;10062;51.052;13.756;2022-11-20T10:30:23;25.03;;;12.03;;
19804;SDS011;10062;51.052;13.756;2022-11-20T10:32:58;22.60;;;11.03;;
19804;SDS011;10062;51.052;13.756;2022-11-20T10:35:37;16.60;;;9.50;;
19804;SDS011;10062;51.052;13.756;2022-11-20T10:38:15;19.63;;;10.10;;
19804;SDS011;10062;51.052;13.756;2022-11-20T10:40:52;16.90;;;8.90;;
19804;SDS011;10062;51.052;13.756;2022-11-20T10:43:49;20.17;;;8.80;;
19804;SDS011;10062;51.052;13.756;2022-11-20T10:46:24;18.47;;;9.23;;
19804;SDS011;10062;51.052;13.756;2022-11-20T10:49:01;15.90;;;8.80;;
19804;SDS011;10062;51.052;13.756;2022-11-20T10:51:39;17.00;;;9.77;;
19804;SDS011;10062;51.052;13.756;2022-11-20T10:54:21;20.63;;;9.60;;
19804;SDS011;10062;51.052;13.756;2022-11-20T10:56:59;16.97;;;9.30;;
19804;SDS011;10062;51.052;13.756;2022-11-20T10:59:41;14.73;;;8.43;;
19804;SDS011;10062;51.052;13.756;2022-11-20T11:02:39;21.47;;;10.00;;
19804;SDS011;10062;51.052;13.756;2022-11-20T11:05:23;18.17;;;9.93;;
19804;SDS011;10062;51.052;13.756;2022-11-20T11:08:04;18.13;;;8.73;;
19804;SDS011;10062;51.052;13.756;2022-11-20T11:10:43;16.93;;;8.83;;
19804;SDS011;10062;51.052;13.756;2022-11-20T11:13:21;15.70;;;8.43;;
19804;SDS011;10062;51.052;13.756;2022-11-20T11:15:53;18.80;;;10.47;;
19804;SDS011;10062;51.052;13.756;2022-11-20T11:18:27;20.37;;;10.70;;
19804;SDS011;10062;51.052;13.756;2022-11-20T11:21:02;15.50;;;8.53;;
19804;SDS011;10062;51.052;13.756;2022-11-20T11:23:37;19.03;;;8.70;;
19804;SDS011;10062;51.052;13.756;2022-11-20T11:26:18;14.20;;;7.97;;
19804;SDS011;10062;51.052;13.756;2022-11-20T11:28:55;16.07;;;8.07;;
19804;SDS011;10062;51.052;13.756;2022-11-20T11:31:29;14.70;;;7.73;;
19804;SDS011;10062;51.052;13.756;2022-11-20T11:34:05;17.33;;;8.37;;
19804;SDS011;10062;51.052;13.756;2022-11-20T11:36:36;14.27;;;6.40;;
19804;SDS011;10062;51.052;13.756;2022-11-20T11:39:13;17.50;;;8.60;;
19804;SDS011;10062;51.052;13.756;2022-11-20T11:41:47;17.10;;;8.30;;
19804;SDS011;10062;51.052;13.756;2022-11-20T11:44:20;13.73;;;6.97;;
19804;SDS011;10062;51.052;13.756;2022-11-20T11:47:16;13.40;;;6.97;;
19804;SDS011;10062;51.052;13.756;2022-11-20T11:50:13;10.53;;;5.87;;
19804;SDS011;10062;51.052;13.756;2022-11-20T11:52:49;11.73;;;5.90;;
19804;SDS011;10062;51.052;13.756;2022-11-20T11:55:28;11.23;;;5.30;;
19804;SDS011;10062;51.052;13.756;2022-11-20T11:58:08;15.40;;;6.13;;
19804;SDS011;10062;51.052;13.756;2022-11-20T12:00:47;12.00;;;5.67;;
19804;SDS011;10062;51.052;13.756;2022-11-20T12:03:28;11.03;;;6.10;;
19804;SDS011;10062;51.052;13.756;2022-11-20T12:06:06;12.40;;;6.30;;
19804;SDS011;10062;51.052;13.756;2022-11-20T12:08:43;12.50;;;6.30;;
19804;SDS011;10062;51.052;13.756;2022-11-20T12:11:23;13.07;;;6.77;;
19804;SDS011;10062;51.052;13.756;2022-11-20T12:14:02;11.47;;;6.83;;
19804;SDS011;10062;51.052;13.756;2022-11-20T12:16:54;12.03;;;6.60;;
19804;SDS011;10062;51.052;13.756;2022-11-20T12:19:27;12.60;;;7.07;;
19804;SDS011;10062;51.052;13.756;2022-11-20T12:22:05;12.80;;;6.80;;
19804;SDS011;10062;51.052;13.756;2022-11-20T12:24:49;14.30;;;7.10;;
19804;SDS011;10062;51.052;13.756;2022-11-20T12:27:32;12.93;;;6.90;;
19804;SDS011;10062;51.052;13.756;2022-11-20T12:30:19;11.43;;;6.47;;
19804;SDS011;10062;51.052;13.756;2022-11-20T12:33:02;14.40;;;7.93;;
19804;SDS011;10062;51.052;13.756;2022-11-20T12:35:58;14.20;;;6.83;;
19804;SDS011;10062;51.052;13.756;2022-11-20T12:38:45;13.10;;;7.17;;
19804;SDS011;10062;51.052;13.756;2022-11-20T12:45:01;11.60;;;5.87;;
19804;SDS011;10062;51.052;13.756;2022-11-20T12:48:03;12.43;;;6.33;;
19804;SDS011;10062;51.052;13.756;2022-11-20T12:51:18;10.27;;;5.80;;
19804;SDS011;10062;51.052;13.756;2022-11-20T12:54:02;13.47;;;6.97;;
19804;SDS011;10062;51.052;13.756;2022-11-20T12:57:01;11.67;;;6.47;;
19804;SDS011;10062;51.052;13.756;2022-11-20T12:59:48;15.37;;;7.77;;
19804;SDS011;10062;51.052;13.756;2022-11-20T13:02:29;63.93;;;30.67;;
19804;SDS011;10062;51.052;13.756;2022-11-20T13:05:18;11.07;;;6.50;;
19804;SDS011;10062;51.052;13.756;2022-11-20T13:07:53;12.30;;;6.80;;
19804;SDS011;10062;51.052;13.756;2022-11-20T13:10:26;13.63;;;6.63;;
19804;SDS011;10062;51.052;13.756;2022-11-20T13:13:10;13.17;;;6.80;;
19804;SDS011;10062;51.052;13.756;2022-11-20T13:15:48;18.20;;;8.27;;
19804;SDS011;10062;51.052;13.756;2022-11-20T13:18:26;16.37;;;8.53;;
19804;SDS011;10062;51.052;13.756;2022-11-20T13:21:13;18.27;;;9.37;;
19804;SDS011;10062;51.052;13.756;2022-11-20T13:23:46;12.53;;;6.67;;
19804;SDS011;10062;51.052;13.756;2022-11-20T13:26:19;13.70;;;6.77;;
19804;SDS011;10062;51.052;13.756;2022-11-20T13:28:59;13.87;;;5.97;;
19804;SDS011;10062;51.052;13.756;2022-11-20T13:31:39;11.50;;;6.03;;
19804;SDS011;10062;51.052;13.756;2022-11-20T13:34:23;11.83;;;5.93;;
19804;SDS011;10062;51.052;13.756;2022-11-20T13:36:57;10.33;;;4.97;;
19804;SDS011;10062;51.052;13.756;2022-11-20T13:39:31;10.20;;;5.83;;
19804;SDS011;10062;51.052;13.756;2022-11-20T13:42:19;10.57;;;5.73;;
19804;SDS011;10062;51.052;13.756;2022-11-20T13:44:54;10.97;;;5.70;;
19804;SDS011;10062;51.052;13.756;2022-11-20T13:47:33;12.93;;;6.27;;
19804;SDS011;10062;51.052;13.756;2022-11-20T13:50:08;12.03;;;6.27;;
19804;SDS011;10062;51.052;13.756;2022-11-20T13:52:42;10.90;;;5.67;;
19804;SDS011;10062;51.052;13.756;2022-11-20T13:55:23;31.07;;;15.83;;
19804;SDS011;10062;51.052;13.756;2022-11-20T14:01:08;15.43;;;7.67;;
19804;SDS011;10062;51.052;13.756;2022-11-20T14:03:40;10.90;;;6.10;;
19804;SDS011;10062;51.052;13.756;2022-11-20T14:06:20;11.53;;;5.63;;
19804;SDS011;10062;51.052;13.756;2022-11-20T14:08:58;12.00;;;6.33;;
19804;SDS011;10062;51.052;13.756;2022-11-20T14:11:30;9.10;;;3.87;;
19804;SDS011;10062;51.052;13.756;2022-11-20T14:14:04;10.63;;;4.93;;
19804;SDS011;10062;51.052;13.756;2022-11-20T14:16:44;12.90;;;4.97;;
19804;SDS011;10062;51.052;13.756;2022-11-20T14:19:22;12.70;;;5.97;;
19804;SDS011;10062;51.052;13.756;2022-11-20T14:22:09;10.97;;;5.87;;
19804;SDS011;10062;51.052;13.756;2022-11-20T14:24:46;10.80;;;5.97;;
19804;SDS011;10062;51.052;13.756;2022-11-20T14:27:19;13.03;;;5.97;;
19804;SDS011;10062;51.052;13.756;2022-11-20T14:29:52;12.97;;;7.13;;
19804;SDS011;10062;51.052;13.756;2022-11-20T14:32:25;10.23;;;6.00;;
19804;SDS011;10062;51.052;13.756;2022-11-20T14:35:02;11.73;;;5.83;;
19804;SDS011;10062;51.052;13.756;2022-11-20T14:37:40;12.07;;;5.53;;
19804;SDS011;10062;51.052;13.756;2022-11-20T14:40:21;11.90;;;5.37;;
19804;SDS011;10062;51.052;13.756;2022-11-20T14:43:01;12.53;;;6.07;;
19804;SDS011;10062;51.052;13.756;2022-11-20T14:45:48;10.67;;;5.93;;
19804;SDS011;10062;51.052;13.756;2022-11-20T14:48:33;11.83;;;6.07;;
19804;SDS011;10062;51.052;13.756;2022-11-20T14:51:11;12.60;;;5.90;;
19804;SDS011;10062;51.052;13.756;2022-11-20T14:53:55;15.43;;;6.73;;
19804;SDS011;10062;51.052;13.756;2022-11-20T14:56:27;12.40;;;5.67;;
19804;SDS011;10062;51.052;13.756;2022-11-20T14:58:58;13.27;;;6.87;;
19804;SDS011;10062;51.052;13.756;2022-11-20T15:01:31;12.57;;;6.23;;
19804;SDS011;10062;51.052;13.756;2022-11-20T15:04:05;12.10;;;5.90;;
19804;SDS011;10062;51.052;13.756;2022-11-20T15:06:48;11.80;;;6.20;;
19804;SDS011;10062;51.052;13.756;2022-11-20T15:09:22;12.00;;;6.03;;
19804;SDS011;10062;51.052;13.756;2022-11-20T15:11:55;13.47;;;6.17;;